createdAt,value
2022-12-27T00:01:12.160Z,14.60
2022-12-27T00:03:39.985Z,14.40
2022-12-27T00:06:11.462Z,14.70
2022-12-27T00:08:38.418Z,17.50
2022-12-27T00:11:10.243Z,16.90
2022-12-27T00:13:37.192Z,16.30
2022-12-27T00:16:08.999Z,16.80
2022-12-27T00:18:36.196Z,16.30
2022-12-27T00:21:03.448Z,16.60
2022-12-27T00:23:32.673Z,18.00
2022-12-27T00:26:03.725Z,19.20
2022-12-27T00:28:34.249Z,28.90
2022-12-27T00:31:03.413Z,28.50
2022-12-27T00:33:30.996Z,25.30
2022-12-27T00:36:02.437Z,22.30
2022-12-27T00:38:29.409Z,21.00
2022-12-27T00:40:56.334Z,18.20
2022-12-27T00:43:24.178Z,19.10
2022-12-27T00:45:51.150Z,17.00
2022-12-27T00:48:17.951Z,16.70
2022-12-27T00:50:45.115Z,17.40
2022-12-27T00:53:12.394Z,27.10
2022-12-27T00:55:39.520Z,21.60
2022-12-27T00:58:06.474Z,26.20
2022-12-27T01:00:33.512Z,29.70
2022-12-27T01:03:00.556Z,28.10
2022-12-27T01:05:27.390Z,21.80
2022-12-27T01:07:54.441Z,23.10
2022-12-27T01:10:21.426Z,21.20
2022-12-27T01:12:48.333Z,25.50
2022-12-27T01:15:15.197Z,23.50
2022-12-27T01:17:42.124Z,22.80
2022-12-27T01:20:09.387Z,19.40
2022-12-27T01:22:36.516Z,16.90
2022-12-27T01:25:03.879Z,20.20
2022-12-27T01:27:30.709Z,19.90
2022-12-27T01:29:57.664Z,21.30
2022-12-27T01:32:24.611Z,19.00
2022-12-27T01:34:51.656Z,19.70
2022-12-27T01:37:18.710Z,18.20
2022-12-27T01:39:45.527Z,17.50
2022-12-27T01:42:35.843Z,17.80
2022-12-27T01:45:16.473Z,18.30
2022-12-27T01:48:09.969Z,19.10
2022-12-27T01:50:48.788Z,20.60
2022-12-27T01:53:28.640Z,21.30
2022-12-27T01:55:59.488Z,20.00
2022-12-27T01:58:55.193Z,19.70
2022-12-27T02:01:24.885Z,18.50
2022-12-27T02:04:19.091Z,19.50
2022-12-27T02:06:46.241Z,20.50
2022-12-27T02:09:36.731Z,22.70
2022-12-27T02:12:05.427Z,23.40
2022-12-27T02:14:39.251Z,21.50
2022-12-27T02:17:08.046Z,20.60
2022-12-27T02:19:41.287Z,21.20
2022-12-27T02:23:05.051Z,21.30
2022-12-27T02:25:53.630Z,22.00
2022-12-27T02:28:33.068Z,23.20
2022-12-27T02:31:09.599Z,23.90
2022-12-27T02:33:38.230Z,21.70
2022-12-27T02:36:06.109Z,21.90
2022-12-27T02:38:44.600Z,23.30
2022-12-27T02:41:30.271Z,26.70
2022-12-27T02:44:16.589Z,26.10
2022-12-27T02:47:02.374Z,25.90
2022-12-27T02:49:49.116Z,25.80
2022-12-27T02:52:41.215Z,24.50
2022-12-27T02:55:14.202Z,22.70
2022-12-27T02:57:53.178Z,22.90
2022-12-27T03:00:39.957Z,22.70
2022-12-27T03:03:32.223Z,24.90
2022-12-27T03:06:24.236Z,27.30
2022-12-27T03:09:09.940Z,24.80
2022-12-27T03:12:05.913Z,23.60
2022-12-27T03:15:01.635Z,24.00
2022-12-27T03:17:37.704Z,25.40
2022-12-27T03:20:25.987Z,27.10
2022-12-27T03:23:11.829Z,26.60
2022-12-27T03:25:41.056Z,24.00
2022-12-27T03:28:38.178Z,24.90
2022-12-27T03:31:30.948Z,26.00
2022-12-27T03:34:04.785Z,25.80
2022-12-27T03:36:50.383Z,27.00
2022-12-27T03:39:20.904Z,30.30
2022-12-27T03:42:09.599Z,27.80
2022-12-27T03:44:36.472Z,36.20
2022-12-27T03:47:17.517Z,35.10
2022-12-27T03:49:48.683Z,33.60
2022-12-27T03:52:25.539Z,24.40
2022-12-27T03:54:52.995Z,21.50
2022-12-27T03:57:25.314Z,21.70
2022-12-27T03:59:52.510Z,19.20
2022-12-27T04:02:19.576Z,18.30
2022-12-27T04:04:46.715Z,17.60
2022-12-27T04:07:13.906Z,18.10
2022-12-27T04:09:59.851Z,18.70
2022-12-27T04:12:45.643Z,34.10
2022-12-27T04:15:31.439Z,39.50
2022-12-27T04:18:17.600Z,37.40
2022-12-27T04:21:03.186Z,29.20
2022-12-27T04:23:48.610Z,26.50
2022-12-27T04:26:34.168Z,25.60
2022-12-27T04:29:19.694Z,28.50
2022-12-27T04:32:05.275Z,31.70
2022-12-27T04:34:44.286Z,34.30
2022-12-27T04:37:16.864Z,31.70
2022-12-27T04:40:04.250Z,31.20
2022-12-27T04:42:49.676Z,34.80
2022-12-27T04:45:35.186Z,35.30
2022-12-27T04:48:20.808Z,31.30
2022-12-27T04:51:06.249Z,33.00
2022-12-27T04:53:51.826Z,29.50
2022-12-27T04:56:18.688Z,28.80
2022-12-27T04:59:05.466Z,28.50
2022-12-27T05:01:51.085Z,28.80
2022-12-27T05:04:18.047Z,30.70
2022-12-27T05:06:44.885Z,28.50
2022-12-27T05:09:30.469Z,29.00
2022-12-27T05:12:15.883Z,27.80
2022-12-27T05:14:42.739Z,26.10
2022-12-27T05:17:09.633Z,27.40
2022-12-27T05:19:36.471Z,27.30
2022-12-27T05:22:21.937Z,27.00
2022-12-27T05:25:07.466Z,27.90
2022-12-27T05:27:34.479Z,28.30
2022-12-27T05:30:01.678Z,24.10
2022-12-27T05:32:28.452Z,24.20
2022-12-27T05:34:55.397Z,24.50
2022-12-27T05:37:22.264Z,25.60
2022-12-27T05:39:49.090Z,33.00
2022-12-27T05:42:17.061Z,39.40
2022-12-27T05:44:43.878Z,51.70
2022-12-27T05:47:10.651Z,43.10
2022-12-27T05:49:37.567Z,38.60
2022-12-27T05:52:04.577Z,41.00
2022-12-27T05:54:31.355Z,36.90
2022-12-27T05:56:58.201Z,39.70
2022-12-27T05:59:25.027Z,42.90
2022-12-27T06:01:51.963Z,43.50
2022-12-27T06:04:18.887Z,38.30
2022-12-27T06:06:45.816Z,37.90
2022-12-27T06:09:12.683Z,37.70
2022-12-27T06:11:39.542Z,37.50
2022-12-27T06:14:06.391Z,37.90
2022-12-27T06:16:36.168Z,37.80
2022-12-27T06:19:03.057Z,37.30
2022-12-27T06:21:30.081Z,35.70
2022-12-27T06:23:56.917Z,32.20
2022-12-27T06:26:25.519Z,34.20
2022-12-27T06:28:52.701Z,36.00
2022-12-27T06:31:20.115Z,36.90
2022-12-27T06:33:50.479Z,36.60
2022-12-27T06:36:19.010Z,36.50
2022-12-27T06:38:46.003Z,34.90
2022-12-27T06:41:13.895Z,30.80
2022-12-27T06:43:40.911Z,31.60
2022-12-27T06:46:16.882Z,33.50
2022-12-27T06:48:46.288Z,32.50
2022-12-27T06:51:13.392Z,37.50
2022-12-27T06:53:42.508Z,37.60
2022-12-27T06:56:11.098Z,37.00
2022-12-27T06:58:37.963Z,36.30
2022-12-27T07:01:12.045Z,35.60
2022-12-27T09:17:27.319Z,41.90
2022-12-27T09:19:54.378Z,38.60
2022-12-27T09:22:23.464Z,33.90
2022-12-27T09:24:50.429Z,29.30
2022-12-27T09:27:17.459Z,27.60
2022-12-27T09:29:48.233Z,28.80
2022-12-27T09:32:15.466Z,25.10
2022-12-27T09:34:42.499Z,20.80
2022-12-27T09:37:09.432Z,18.20
2022-12-27T09:39:36.588Z,10.00
2022-12-27T09:45:44.403Z,2.20
2022-12-27T09:48:33.053Z,1.40
2022-12-27T09:51:16.397Z,0.40
2022-12-27T09:53:48.169Z,0.60
2022-12-27T09:56:21.696Z,0.40
2022-12-27T09:58:56.427Z,2.40
2022-12-27T10:01:33.155Z,1.40
2022-12-27T10:04:00.651Z,2.70
2022-12-27T10:06:33.695Z,1.90
2022-12-27T10:09:16.849Z,1.90
2022-12-27T10:11:46.242Z,1.60
2022-12-27T10:14:40.910Z,2.10
2022-12-27T10:17:49.368Z,1.30
2022-12-27T10:20:40.765Z,1.10
2022-12-27T10:23:11.644Z,6.60
2022-12-27T10:25:39.448Z,6.50
2022-12-27T10:28:16.179Z,12.40
2022-12-27T10:30:43.680Z,5.50
2022-12-27T10:33:22.607Z,6.10
2022-12-27T10:35:49.454Z,9.10
2022-12-27T10:38:19.199Z,3.30
2022-12-27T10:41:15.937Z,3.70
2022-12-27T10:43:43.409Z,4.10
2022-12-27T10:46:21.291Z,2.80
2022-12-27T10:49:20.246Z,1.70
2022-12-27T10:51:41.574Z,1.90
2022-12-27T10:54:24.286Z,1.60
2022-12-27T10:56:51.430Z,1.70
2022-12-27T10:59:28.851Z,1.90
2022-12-27T11:02:02.573Z,1.60
2022-12-27T11:04:30.926Z,0.80
2022-12-27T11:07:01.026Z,1.20
2022-12-27T11:09:33.219Z,4.00
2022-12-27T11:12:26.192Z,0.80
2022-12-27T11:15:09.868Z,1.00
2022-12-27T11:18:07.735Z,0.80
2022-12-27T11:20:39.315Z,0.60
2022-12-27T11:23:09.421Z,0.80
2022-12-27T11:25:58.690Z,0.60
2022-12-27T11:28:39.055Z,1.30
2022-12-27T11:31:11.714Z,0.90
2022-12-27T11:33:55.265Z,1.80
2022-12-27T11:36:31.505Z,0.50
2022-12-27T11:38:58.878Z,0.30
2022-12-27T11:41:30.043Z,1.30
2022-12-27T11:44:21.243Z,0.50
2022-12-27T11:47:12.561Z,0.80
2022-12-27T11:50:03.461Z,0.80
2022-12-27T11:52:43.932Z,56.20
2022-12-27T11:55:30.023Z,14.20
2022-12-27T11:58:28.199Z,7.40
2022-12-27T12:01:20.148Z,3.40
2022-12-27T12:04:12.070Z,2.10
2022-12-27T12:06:46.908Z,1.20
2022-12-27T12:09:29.496Z,0.70
2022-12-27T12:12:48.148Z,0.60
2022-12-27T12:15:22.582Z,0.90
2022-12-27T12:18:22.606Z,0.60
2022-12-27T12:21:27.652Z,1.10
2022-12-27T12:24:19.787Z,0.60
2022-12-27T12:26:55.521Z,0.40
2022-12-27T12:29:39.149Z,1.10
2022-12-27T12:32:37.494Z,0.70
2022-12-27T12:35:26.185Z,1.10
2022-12-27T12:38:11.149Z,1.00
2022-12-27T12:41:15.065Z,0.90
2022-12-27T12:46:29.006Z,1.20
2022-12-27T12:49:08.357Z,1.10
2022-12-27T12:51:50.902Z,1.60
2022-12-27T12:54:45.957Z,2.60
2022-12-27T12:57:23.257Z,0.90
2022-12-27T13:00:10.145Z,1.30
2022-12-27T13:02:58.955Z,1.30
2022-12-27T13:05:44.304Z,0.70
2022-12-27T17:21:39.190Z,3.40
2022-12-27T17:24:13.341Z,13.70
2022-12-27T17:27:02.228Z,13.90
2022-12-27T17:29:30.086Z,9.10
2022-12-27T17:32:09.960Z,5.90
2022-12-27T17:34:44.386Z,4.10
2022-12-27T17:37:17.034Z,7.60
2022-12-27T17:40:06.093Z,4.80
2022-12-27T17:43:11.128Z,8.60
2022-12-27T17:45:59.774Z,5.30
2022-12-27T17:48:30.936Z,4.70
2022-12-27T17:51:12.421Z,4.10
2022-12-27T17:54:11.759Z,4.20
2022-12-27T17:57:05.197Z,3.20
2022-12-27T17:59:34.204Z,4.90
2022-12-27T18:02:07.011Z,4.10
2022-12-27T18:04:35.562Z,5.30
2022-12-27T18:07:07.692Z,15.50
2022-12-27T18:09:39.881Z,5.20
2022-12-27T18:12:40.696Z,5.00
2022-12-27T18:15:15.771Z,3.30
2022-12-27T18:18:03.945Z,3.30
2022-12-27T18:20:34.195Z,3.20
2022-12-27T18:23:01.189Z,3.90
2022-12-27T18:25:40.533Z,3.10
2022-12-27T18:28:16.741Z,3.30
2022-12-27T18:30:53.853Z,3.30
2022-12-27T18:33:25.571Z,4.80
2022-12-27T18:35:52.517Z,5.10
2022-12-27T18:38:32.673Z,3.10
2022-12-27T18:41:02.560Z,2.20
2022-12-27T18:43:29.530Z,2.80
2022-12-27T18:45:56.505Z,2.60
2022-12-27T18:48:23.938Z,3.60
2022-12-27T18:50:53.307Z,2.00
2022-12-27T18:53:25.236Z,2.40
2022-12-27T18:56:16.406Z,1.90
2022-12-27T18:59:06.053Z,1.70
2022-12-27T19:01:40.970Z,3.60
2022-12-27T19:04:14.516Z,2.10
2022-12-27T19:06:42.547Z,1.90
2022-12-27T19:09:14.443Z,2.40
2022-12-27T19:11:41.397Z,1.70
2022-12-27T19:14:12.436Z,2.10
2022-12-27T19:16:39.411Z,2.30
2022-12-27T19:19:19.774Z,2.10
2022-12-27T19:21:46.687Z,1.80
2022-12-27T19:24:30.827Z,2.60
2022-12-27T19:27:01.007Z,1.40
2022-12-27T19:29:33.358Z,1.90
2022-12-27T19:32:09.780Z,3.20
2022-12-27T19:34:44.474Z,2.80
2022-12-27T19:37:11.759Z,3.60
2022-12-27T19:39:39.173Z,3.90
2022-12-27T19:42:07.906Z,4.20
2022-12-27T19:44:37.419Z,3.90
2022-12-27T19:47:04.576Z,4.20
2022-12-27T19:49:42.694Z,4.30
2022-12-27T19:52:18.492Z,3.20
2022-12-27T19:54:49.039Z,2.80
2022-12-27T19:57:16.506Z,2.00
2022-12-27T19:59:44.623Z,2.40
2022-12-27T20:02:12.906Z,2.70
2022-12-27T20:04:42.899Z,2.00
2022-12-27T20:07:15.161Z,3.70
2022-12-27T20:09:42.389Z,2.50
2022-12-27T20:12:11.910Z,2.30
2022-12-27T20:14:39.152Z,2.40
2022-12-27T20:17:06.292Z,2.00
2022-12-27T20:19:33.758Z,3.10
2022-12-27T20:22:01.026Z,2.90
2022-12-27T20:24:31.752Z,4.00
2022-12-27T20:27:01.553Z,3.00
2022-12-27T20:29:32.807Z,3.00
2022-12-27T20:31:59.943Z,3.70
2022-12-27T20:34:27.044Z,3.40
2022-12-27T20:36:55.614Z,3.60
2022-12-27T20:39:26.838Z,3.20
2022-12-27T20:41:56.121Z,3.50
2022-12-27T20:44:23.091Z,3.10
2022-12-27T20:46:52.289Z,4.40
2022-12-27T20:49:21.469Z,4.70
2022-12-27T20:51:48.806Z,4.50
2022-12-27T20:54:18.320Z,4.90
2022-12-27T20:56:45.262Z,4.20
2022-12-27T20:59:12.209Z,4.20
2022-12-27T21:01:39.610Z,3.70
2022-12-27T21:04:06.812Z,2.90
2022-12-27T21:06:33.763Z,3.10
2022-12-27T21:09:00.721Z,2.20
2022-12-27T21:11:31.666Z,1.90
2022-12-27T21:14:03.218Z,2.10
2022-12-27T21:16:33.175Z,1.90
2022-12-27T21:19:05.132Z,2.60
2022-12-27T21:21:36.830Z,3.10
2022-12-27T21:24:06.383Z,2.50
2022-12-27T21:26:36.174Z,2.40
2022-12-27T21:29:05.753Z,2.00
2022-12-27T21:31:33.193Z,2.20
2022-12-27T21:34:00.222Z,3.10
2022-12-27T21:36:29.888Z,2.50
2022-12-27T21:38:57.089Z,2.40
2022-12-27T21:41:36.482Z,2.60
2022-12-27T21:44:03.471Z,2.20
2022-12-27T21:46:35.009Z,1.90
2022-12-27T21:49:15.341Z,1.60
2022-12-27T21:51:42.743Z,0.90
2022-12-27T21:54:10.695Z,1.40
2022-12-27T21:56:37.951Z,9.00
2022-12-27T21:59:10.778Z,4.40
2022-12-27T22:01:51.026Z,3.50
2022-12-27T22:04:20.615Z,5.40
2022-12-27T22:06:48.143Z,11.10
2022-12-27T22:09:15.148Z,15.10
2022-12-27T22:11:42.084Z,11.50
2022-12-27T22:14:09.151Z,9.10
2022-12-27T22:16:37.308Z,6.50
2022-12-27T22:19:11.112Z,7.00
2022-12-27T22:21:38.798Z,13.60
2022-12-27T22:24:05.912Z,74.20
2022-12-27T22:26:39.782Z,20.40
2022-12-27T22:29:07.966Z,3.40
2022-12-27T22:31:38.320Z,2.50
2022-12-27T22:34:05.741Z,2.80
2022-12-27T22:36:32.823Z,2.70
2022-12-27T22:39:00.025Z,2.40
2022-12-27T22:41:31.870Z,2.40
2022-12-27T22:44:01.904Z,2.40
2022-12-27T22:46:39.337Z,2.20
2022-12-27T22:49:16.338Z,2.80
2022-12-27T22:51:45.596Z,2.90
2022-12-27T22:54:12.430Z,2.70
2022-12-27T22:56:40.253Z,2.60
2022-12-27T22:59:14.349Z,2.70
2022-12-27T23:01:41.480Z,2.30
2022-12-27T23:04:10.171Z,2.00
2022-12-27T23:06:37.383Z,1.90
2022-12-27T23:09:04.489Z,2.40
2022-12-27T23:11:33.418Z,2.30
2022-12-27T23:14:01.886Z,2.10
2022-12-27T23:16:29.236Z,2.40
2022-12-27T23:18:56.096Z,2.20
2022-12-27T23:21:24.776Z,2.50
2022-12-27T23:23:52.355Z,2.60
2022-12-27T23:26:21.235Z,3.50
2022-12-27T23:28:48.423Z,3.30
2022-12-27T23:31:18.771Z,3.80
2022-12-27T23:33:46.122Z,5.00
2022-12-27T23:36:13.337Z,3.60
2022-12-27T23:38:41.472Z,3.80
2022-12-27T23:41:09.064Z,3.50
2022-12-27T23:43:55.038Z,3.60
2022-12-27T23:46:25.137Z,3.00
2022-12-27T23:48:52.077Z,3.10
2022-12-27T23:51:18.995Z,3.10
2022-12-27T23:53:45.875Z,3.20
2022-12-27T23:56:20.788Z,3.20
2022-12-27T23:58:47.964Z,3.00
